sensor_id;sensor_type;location;lat;lon;timestamp;P1;durP1;ratioP1;P2;durP2;ratioP2
30185;SDS011;31152;49.190;8.122;2022-07-12T00:00:00;3.33;;;1.50;;
30185;SDS011;31152;49.190;8.122;2022-07-12T00:02:27;3.15;;;1.67;;
30185;SDS011;31152;49.190;8.122;2022-07-12T00:04:54;2.50;;;1.80;;
30185;SDS011;31152;49.190;8.122;2022-07-12T00:07:21;2.53;;;1.50;;
30185;SDS011;31152;49.190;8.122;2022-07-12T00:09:48;3.13;;;1.60;;
30185;SDS011;31152;49.190;8.122;2022-07-12T00:12:15;2.38;;;2.00;;
30185;SDS011;31152;49.190;8.122;2022-07-12T00:14:44;4.85;;;1.73;;
30185;SDS011;31152;49.190;8.122;2022-07-12T00:17:11;2.08;;;1.50;;
30185;SDS011;31152;49.190;8.122;2022-07-12T00:19:38;1.80;;;1.50;;
30185;SDS011;31152;49.190;8.122;2022-07-12T00:22:04;2.38;;;1.50;;
30185;SDS011;31152;49.190;8.122;2022-07-12T00:24:31;3.30;;;1.42;;
30185;SDS011;31152;49.190;8.122;2022-07-12T00:27:00;1.83;;;1.60;;
30185;SDS011;31152;49.190;8.122;2022-07-12T00:29:27;2.85;;;1.65;;
30185;SDS011;31152;49.190;8.122;2022-07-12T00:31:54;3.03;;;2.38;;
30185;SDS011;31152;49.190;8.122;2022-07-12T00:34:21;2.65;;;1.95;;
30185;SDS011;31152;49.190;8.122;2022-07-12T00:36:48;1.55;;;1.45;;
30185;SDS011;31152;49.190;8.122;2022-07-12T00:39:14;3.03;;;1.52;;
30185;SDS011;31152;49.190;8.122;2022-07-12T00:41:41;3.53;;;1.63;;
30185;SDS011;31152;49.190;8.122;2022-07-12T00:44:08;2.35;;;1.83;;
30185;SDS011;31152;49.190;8.122;2022-07-12T00:46:38;2.15;;;1.48;;
30185;SDS011;31152;49.190;8.122;2022-07-12T00:49:07;1.55;;;1.30;;
30185;SDS011;31152;49.190;8.122;2022-07-12T00:51:44;3.10;;;2.00;;
30185;SDS011;31152;49.190;8.122;2022-07-12T00:54:11;2.72;;;1.83;;
30185;SDS011;31152;49.190;8.122;2022-07-12T00:56:40;3.53;;;1.80;;
30185;SDS011;31152;49.190;8.122;2022-07-12T00:59:07;6.57;;;2.00;;
30185;SDS011;31152;49.190;8.122;2022-07-12T01:01:33;5.18;;;1.77;;
30185;SDS011;31152;49.190;8.122;2022-07-12T01:04:03;3.78;;;1.50;;
30185;SDS011;31152;49.190;8.122;2022-07-12T01:06:31;3.05;;;1.73;;
30185;SDS011;31152;49.190;8.122;2022-07-12T01:09:01;3.22;;;1.98;;
30185;SDS011;31152;49.190;8.122;2022-07-12T01:11:30;2.60;;;1.83;;
30185;SDS011;31152;49.190;8.122;2022-07-12T01:13:57;3.70;;;1.60;;
30185;SDS011;31152;49.190;8.122;2022-07-12T01:16:28;3.97;;;1.75;;
30185;SDS011;31152;49.190;8.122;2022-07-12T01:18:57;4.18;;;2.05;;
30185;SDS011;31152;49.190;8.122;2022-07-12T01:21:25;2.95;;;1.85;;
30185;SDS011;31152;49.190;8.122;2022-07-12T01:23:57;4.60;;;2.10;;
30185;SDS011;31152;49.190;8.122;2022-07-12T01:26:25;3.92;;;1.92;;
30185;SDS011;31152;49.190;8.122;2022-07-12T01:28:54;4.22;;;1.83;;
30185;SDS011;31152;49.190;8.122;2022-07-12T01:31:24;2.78;;;1.85;;
30185;SDS011;31152;49.190;8.122;2022-07-12T01:33:51;3.72;;;2.08;;
30185;SDS011;31152;49.190;8.122;2022-07-12T01:36:20;4.32;;;1.95;;
30185;SDS011;31152;49.190;8.122;2022-07-12T01:38:47;3.53;;;2.15;;
30185;SDS011;31152;49.190;8.122;2022-07-12T01:41:14;2.42;;;1.88;;
30185;SDS011;31152;49.190;8.122;2022-07-12T01:43:42;2.83;;;2.28;;
30185;SDS011;31152;49.190;8.122;2022-07-12T01:46:09;6.43;;;2.10;;
30185;SDS011;31152;49.190;8.122;2022-07-12T01:48:36;2.67;;;1.90;;
30185;SDS011;31152;49.190;8.122;2022-07-12T01:51:03;2.15;;;1.88;;
30185;SDS011;31152;49.190;8.122;2022-07-12T01:53:30;3.10;;;2.20;;
30185;SDS011;31152;49.190;8.122;2022-07-12T01:55:57;3.65;;;2.45;;
30185;SDS011;31152;49.190;8.122;2022-07-12T01:58:24;2.88;;;2.20;;
30185;SDS011;31152;49.190;8.122;2022-07-12T02:00:51;2.08;;;1.85;;
30185;SDS011;31152;49.190;8.122;2022-07-12T02:03:19;2.53;;;2.00;;
30185;SDS011;31152;49.190;8.122;2022-07-12T02:05:46;5.80;;;2.30;;
30185;SDS011;31152;49.190;8.122;2022-07-12T02:08:13;2.80;;;1.90;;
30185;SDS011;31152;49.190;8.122;2022-07-12T02:10:40;4.25;;;2.00;;
30185;SDS011;31152;49.190;8.122;2022-07-12T02:13:08;3.35;;;2.50;;
30185;SDS011;31152;49.190;8.122;2022-07-12T02:15:35;4.32;;;2.08;;
30185;SDS011;31152;49.190;8.122;2022-07-12T02:18:02;4.80;;;2.47;;
30185;SDS011;31152;49.190;8.122;2022-07-12T02:20:29;2.35;;;2.15;;
30185;SDS011;31152;49.190;8.122;2022-07-12T02:22:58;3.25;;;2.72;;
30185;SDS011;31152;49.190;8.122;2022-07-12T02:25:27;2.60;;;2.15;;
30185;SDS011;31152;49.190;8.122;2022-07-12T02:27:54;6.43;;;2.50;;
30185;SDS011;31152;49.190;8.122;2022-07-12T02:30:21;3.15;;;2.30;;
30185;SDS011;31152;49.190;8.122;2022-07-12T02:32:47;4.93;;;2.20;;
30185;SDS011;31152;49.190;8.122;2022-07-12T02:35:17;3.85;;;2.38;;
30185;SDS011;31152;49.190;8.122;2022-07-12T02:37:44;2.90;;;2.33;;
30185;SDS011;31152;49.190;8.122;2022-07-12T02:40:11;3.75;;;2.50;;
30185;SDS011;31152;49.190;8.122;2022-07-12T02:42:56;5.65;;;2.42;;
30185;SDS011;31152;49.190;8.122;2022-07-12T02:45:25;3.58;;;2.47;;
30185;SDS011;31152;49.190;8.122;2022-07-12T02:47:52;3.70;;;2.30;;
30185;SDS011;31152;49.190;8.122;2022-07-12T02:50:19;3.58;;;2.20;;
30185;SDS011;31152;49.190;8.122;2022-07-12T02:52:46;3.22;;;2.08;;
30185;SDS011;31152;49.190;8.122;2022-07-12T02:55:12;3.17;;;2.20;;
30185;SDS011;31152;49.190;8.122;2022-07-12T02:57:39;2.40;;;2.13;;
30185;SDS011;31152;49.190;8.122;2022-07-12T03:00:06;3.05;;;2.50;;
30185;SDS011;31152;49.190;8.122;2022-07-12T03:02:35;3.55;;;2.50;;
30185;SDS011;31152;49.190;8.122;2022-07-12T03:05:02;4.30;;;2.67;;
30185;SDS011;31152;49.190;8.122;2022-07-12T03:07:29;4.13;;;2.58;;
30185;SDS011;31152;49.190;8.122;2022-07-12T03:09:56;7.88;;;2.83;;
30185;SDS011;31152;49.190;8.122;2022-07-12T03:12:25;3.13;;;2.63;;
30185;SDS011;31152;49.190;8.122;2022-07-12T03:14:53;3.28;;;2.70;;
30185;SDS011;31152;49.190;8.122;2022-07-12T03:17:20;4.30;;;2.28;;
30185;SDS011;31152;49.190;8.122;2022-07-12T03:19:47;3.72;;;2.80;;
30185;SDS011;31152;49.190;8.122;2022-07-12T03:22:14;3.03;;;2.60;;
30185;SDS011;31152;49.190;8.122;2022-07-12T03:24:43;5.13;;;2.83;;
30185;SDS011;31152;49.190;8.122;2022-07-12T03:27:10;3.60;;;2.95;;
30185;SDS011;31152;49.190;8.122;2022-07-12T03:29:37;6.82;;;3.17;;
30185;SDS011;31152;49.190;8.122;2022-07-12T03:32:06;4.95;;;2.88;;
30185;SDS011;31152;49.190;8.122;2022-07-12T03:34:36;4.40;;;3.00;;
30185;SDS011;31152;49.190;8.122;2022-07-12T03:37:03;5.72;;;3.03;;
30185;SDS011;31152;49.190;8.122;2022-07-12T03:39:30;4.72;;;2.90;;
30185;SDS011;31152;49.190;8.122;2022-07-12T03:42:00;4.85;;;2.72;;
30185;SDS011;31152;49.190;8.122;2022-07-12T03:44:27;4.35;;;2.72;;
30185;SDS011;31152;49.190;8.122;2022-07-12T03:46:56;5.85;;;3.42;;
30185;SDS011;31152;49.190;8.122;2022-07-12T03:49:24;3.67;;;2.75;;
30185;SDS011;31152;49.190;8.122;2022-07-12T03:51:51;3.35;;;2.97;;
30185;SDS011;31152;49.190;8.122;2022-07-12T03:54:18;3.85;;;2.70;;
30185;SDS011;31152;49.190;8.122;2022-07-12T03:56:49;3.28;;;2.97;;
30185;SDS011;31152;49.190;8.122;2022-07-12T03:59:37;4.65;;;3.05;;
30185;SDS011;31152;49.190;8.122;2022-07-12T04:02:07;3.65;;;2.90;;
30185;SDS011;31152;49.190;8.122;2022-07-12T04:04:34;5.90;;;2.88;;
30185;SDS011;31152;49.190;8.122;2022-07-12T04:07:01;7.13;;;2.83;;
30185;SDS011;31152;49.190;8.122;2022-07-12T04:09:28;4.55;;;2.63;;
30185;SDS011;31152;49.190;8.122;2022-07-12T04:11:55;4.80;;;3.15;;
30185;SDS011;31152;49.190;8.122;2022-07-12T04:14:25;3.63;;;3.03;;
30185;SDS011;31152;49.190;8.122;2022-07-12T04:16:54;4.68;;;2.97;;
30185;SDS011;31152;49.190;8.122;2022-07-12T04:19:21;15.63;;;3.55;;
30185;SDS011;31152;49.190;8.122;2022-07-12T04:21:51;10.35;;;2.88;;
30185;SDS011;31152;49.190;8.122;2022-07-12T04:24:22;5.10;;;3.10;;
30185;SDS011;31152;49.190;8.122;2022-07-12T04:26:50;3.72;;;2.47;;
30185;SDS011;31152;49.190;8.122;2022-07-12T04:29:20;5.40;;;2.95;;
30185;SDS011;31152;49.190;8.122;2022-07-12T04:31:47;4.55;;;2.88;;
30185;SDS011;31152;49.190;8.122;2022-07-12T04:34:14;5.70;;;2.80;;
30185;SDS011;31152;49.190;8.122;2022-07-12T04:36:44;3.88;;;2.90;;
30185;SDS011;31152;49.190;8.122;2022-07-12T04:39:12;5.43;;;2.78;;
30185;SDS011;31152;49.190;8.122;2022-07-12T04:41:41;5.15;;;2.90;;
30185;SDS011;31152;49.190;8.122;2022-07-12T04:44:08;8.02;;;3.15;;
30185;SDS011;31152;49.190;8.122;2022-07-12T04:46:35;4.32;;;3.33;;
30185;SDS011;31152;49.190;8.122;2022-07-12T04:49:02;3.30;;;3.00;;
30185;SDS011;31152;49.190;8.122;2022-07-12T04:51:28;4.90;;;2.90;;
30185;SDS011;31152;49.190;8.122;2022-07-12T04:53:55;7.82;;;3.78;;
30185;SDS011;31152;49.190;8.122;2022-07-12T04:56:22;4.70;;;2.92;;
30185;SDS011;31152;49.190;8.122;2022-07-12T04:58:51;6.10;;;2.50;;
30185;SDS011;31152;49.190;8.122;2022-07-12T05:01:25;5.65;;;3.03;;
30185;SDS011;31152;49.190;8.122;2022-07-12T05:03:52;8.23;;;2.83;;
30185;SDS011;31152;49.190;8.122;2022-07-12T05:06:21;5.30;;;2.58;;
30185;SDS011;31152;49.190;8.122;2022-07-12T05:08:51;4.40;;;3.05;;
30185;SDS011;31152;49.190;8.122;2022-07-12T05:11:18;6.78;;;2.55;;
30185;SDS011;31152;49.190;8.122;2022-07-12T05:13:48;4.28;;;2.83;;
30185;SDS011;31152;49.190;8.122;2022-07-12T05:16:14;3.40;;;2.42;;
30185;SDS011;31152;49.190;8.122;2022-07-12T05:18:41;3.25;;;2.50;;
30185;SDS011;31152;49.190;8.122;2022-07-12T05:21:08;6.57;;;2.33;;
30185;SDS011;31152;49.190;8.122;2022-07-12T05:23:35;5.65;;;2.35;;
30185;SDS011;31152;49.190;8.122;2022-07-12T05:26:02;6.40;;;2.35;;
30185;SDS011;31152;49.190;8.122;2022-07-12T05:28:29;6.40;;;1.95;;
30185;SDS011;31152;49.190;8.122;2022-07-12T05:30:55;7.93;;;1.92;;
30185;SDS011;31152;49.190;8.122;2022-07-12T05:33:22;10.15;;;2.20;;
30185;SDS011;31152;49.190;8.122;2022-07-12T05:35:49;7.82;;;2.28;;
30185;SDS011;31152;49.190;8.122;2022-07-12T05:38:17;4.40;;;2.00;;
30185;SDS011;31152;49.190;8.122;2022-07-12T05:40:44;7.07;;;2.10;;
30185;SDS011;31152;49.190;8.122;2022-07-12T05:43:11;5.32;;;2.33;;
30185;SDS011;31152;49.190;8.122;2022-07-12T05:45:42;5.10;;;1.98;;
30185;SDS011;31152;49.190;8.122;2022-07-12T05:48:10;3.50;;;2.00;;
30185;SDS011;31152;49.190;8.122;2022-07-12T05:50:37;9.90;;;2.20;;
30185;SDS011;31152;49.190;8.122;2022-07-12T05:53:03;2.97;;;1.98;;
30185;SDS011;31152;49.190;8.122;2022-07-12T05:55:52;3.50;;;2.08;;
30185;SDS011;31152;49.190;8.122;2022-07-12T05:58:20;7.97;;;2.00;;
30185;SDS011;31152;49.190;8.122;2022-07-12T06:00:52;7.82;;;2.63;;
30185;SDS011;31152;49.190;8.122;2022-07-12T06:03:19;5.57;;;2.75;;
30185;SDS011;31152;49.190;8.122;2022-07-12T06:05:48;4.10;;;2.33;;
30185;SDS011;31152;49.190;8.122;2022-07-12T06:08:23;9.68;;;2.50;;
30185;SDS011;31152;49.190;8.122;2022-07-12T06:10:49;11.88;;;2.70;;
30185;SDS011;31152;49.190;8.122;2022-07-12T06:13:16;2.67;;;1.83;;
30185;SDS011;31152;49.190;8.122;2022-07-12T06:15:43;3.80;;;2.03;;
30185;SDS011;31152;49.190;8.122;2022-07-12T06:18:13;2.75;;;2.03;;
30185;SDS011;31152;49.190;8.122;2022-07-12T06:20:42;7.18;;;2.17;;
30185;SDS011;31152;49.190;8.122;2022-07-12T06:23:11;8.25;;;2.33;;
30185;SDS011;31152;49.190;8.122;2022-07-12T06:25:41;3.45;;;1.85;;
30185;SDS011;31152;49.190;8.122;2022-07-12T06:28:09;6.80;;;2.10;;
30185;SDS011;31152;49.190;8.122;2022-07-12T06:30:36;8.15;;;2.83;;
30185;SDS011;31152;49.190;8.122;2022-07-12T06:33:04;6.90;;;2.95;;
30185;SDS011;31152;49.190;8.122;2022-07-12T06:35:33;4.68;;;2.30;;
30185;SDS011;31152;49.190;8.122;2022-07-12T06:38:00;5.97;;;1.80;;
30185;SDS011;31152;49.190;8.122;2022-07-12T06:40:30;4.15;;;2.20;;
30185;SDS011;31152;49.190;8.122;2022-07-12T06:43:00;4.03;;;2.17;;
30185;SDS011;31152;49.190;8.122;2022-07-12T06:45:27;3.72;;;1.60;;
30185;SDS011;31152;49.190;8.122;2022-07-12T06:47:56;7.30;;;2.08;;
30185;SDS011;31152;49.190;8.122;2022-07-12T06:50:25;4.20;;;1.98;;
30185;SDS011;31152;49.190;8.122;2022-07-12T06:52:54;5.00;;;1.60;;
30185;SDS011;31152;49.190;8.122;2022-07-12T06:55:21;3.33;;;2.03;;
30185;SDS011;31152;49.190;8.122;2022-07-12T06:57:48;3.53;;;1.45;;
30185;SDS011;31152;49.190;8.122;2022-07-12T07:00:15;6.55;;;2.03;;
30185;SDS011;31152;49.190;8.122;2022-07-12T07:02:42;3.97;;;1.45;;
30185;SDS011;31152;49.190;8.122;2022-07-12T07:05:09;5.60;;;1.52;;
30185;SDS011;31152;49.190;8.122;2022-07-12T07:07:38;3.92;;;1.20;;
30185;SDS011;31152;49.190;8.122;2022-07-12T07:10:05;4.15;;;1.42;;
30185;SDS011;31152;49.190;8.122;2022-07-12T07:12:32;5.22;;;1.30;;
30185;SDS011;31152;49.190;8.122;2022-07-12T07:14:59;3.20;;;1.23;;
30185;SDS011;31152;49.190;8.122;2022-07-12T07:17:25;3.33;;;1.48;;
30185;SDS011;31152;49.190;8.122;2022-07-12T07:19:52;3.63;;;1.50;;
30185;SDS011;31152;49.190;8.122;2022-07-12T07:22:20;42.88;;;2.78;;
30185;SDS011;31152;49.190;8.122;2022-07-12T07:24:46;23.98;;;1.95;;
30185;SDS011;31152;49.190;8.122;2022-07-12T07:27:13;8.77;;;1.48;;
30185;SDS011;31152;49.190;8.122;2022-07-12T07:29:40;24.67;;;2.00;;
30185;SDS011;31152;49.190;8.122;2022-07-12T07:32:26;4.40;;;1.30;;
30185;SDS011;31152;49.190;8.122;2022-07-12T07:34:52;4.57;;;1.10;;
30185;SDS011;31152;49.190;8.122;2022-07-12T07:37:19;3.63;;;0.80;;
30185;SDS011;31152;49.190;8.122;2022-07-12T07:39:46;5.32;;;1.15;;
30185;SDS011;31152;49.190;8.122;2022-07-12T07:42:15;8.10;;;1.60;;
30185;SDS011;31152;49.190;8.122;2022-07-12T07:44:42;6.93;;;1.35;;
30185;SDS011;31152;49.190;8.122;2022-07-12T07:47:31;44.55;;;3.67;;
30185;SDS011;31152;49.190;8.122;2022-07-12T07:50:28;3.17;;;1.27;;
30185;SDS011;31152;49.190;8.122;2022-07-12T07:52:56;2.58;;;1.67;;
30185;SDS011;31152;49.190;8.122;2022-07-12T07:55:25;33.40;;;2.90;;
30185;SDS011;31152;49.190;8.122;2022-07-12T07:57:53;7.80;;;1.52;;
30185;SDS011;31152;49.190;8.122;2022-07-12T08:00:25;3.72;;;1.35;;
30185;SDS011;31152;49.190;8.122;2022-07-12T08:02:54;5.80;;;0.98;;
30185;SDS011;31152;49.190;8.122;2022-07-12T08:05:21;7.65;;;1.10;;
30185;SDS011;31152;49.190;8.122;2022-07-12T08:15:16;1.73;;;1.13;;
30185;SDS011;31152;49.190;8.122;2022-07-12T08:17:43;2.53;;;0.90;;
30185;SDS011;31152;49.190;8.122;2022-07-12T08:20:18;2.53;;;1.00;;
30185;SDS011;31152;49.190;8.122;2022-07-12T08:23:05;6.28;;;1.15;;
30185;SDS011;31152;49.190;8.122;2022-07-12T08:25:37;7.85;;;1.23;;
30185;SDS011;31152;49.190;8.122;2022-07-12T08:28:06;6.30;;;1.20;;
30185;SDS011;31152;49.190;8.122;2022-07-12T08:30:33;3.15;;;0.82;;
30185;SDS011;31152;49.190;8.122;2022-07-12T08:33:05;3.42;;;1.00;;
30185;SDS011;31152;49.190;8.122;2022-07-12T08:35:32;7.07;;;1.00;;
30185;SDS011;31152;49.190;8.122;2022-07-12T08:38:01;2.33;;;0.77;;
30185;SDS011;31152;49.190;8.122;2022-07-12T08:40:30;2.28;;;0.70;;
30185;SDS011;31152;49.190;8.122;2022-07-12T08:42:59;3.22;;;0.73;;
30185;SDS011;31152;49.190;8.122;2022-07-12T08:45:26;1.67;;;0.90;;
30185;SDS011;31152;49.190;8.122;2022-07-12T08:47:53;2.15;;;0.70;;
30185;SDS011;31152;49.190;8.122;2022-07-12T08:50:21;0.75;;;0.63;;
30185;SDS011;31152;49.190;8.122;2022-07-12T08:52:53;1.15;;;0.85;;
30185;SDS011;31152;49.190;8.122;2022-07-12T08:55:34;1.55;;;0.90;;
30185;SDS011;31152;49.190;8.122;2022-07-12T08:58:02;6.70;;;1.30;;
30185;SDS011;31152;49.190;8.122;2022-07-12T09:00:31;9.73;;;1.58;;
30185;SDS011;31152;49.190;8.122;2022-07-12T09:02:59;2.55;;;1.17;;
30185;SDS011;31152;49.190;8.122;2022-07-12T09:05:29;5.10;;;0.80;;
30185;SDS011;31152;49.190;8.122;2022-07-12T09:08:07;5.13;;;1.15;;
30185;SDS011;31152;49.190;8.122;2022-07-12T09:13:21;5.03;;;0.90;;
30185;SDS011;31152;49.190;8.122;2022-07-12T09:16:17;3.42;;;1.10;;
30185;SDS011;31152;49.190;8.122;2022-07-12T09:18:46;2.63;;;0.90;;
30185;SDS011;31152;49.190;8.122;2022-07-12T09:21:20;4.65;;;0.90;;
30185;SDS011;31152;49.190;8.122;2022-07-12T09:23:57;8.10;;;1.42;;
30185;SDS011;31152;49.190;8.122;2022-07-12T09:26:31;1.05;;;0.95;;
30185;SDS011;31152;49.190;8.122;2022-07-12T09:29:05;4.18;;;0.95;;
30185;SDS011;31152;49.190;8.122;2022-07-12T09:31:43;1.25;;;0.75;;
30185;SDS011;31152;49.190;8.122;2022-07-12T09:34:34;2.45;;;1.10;;
30185;SDS011;31152;49.190;8.122;2022-07-12T09:37:20;3.05;;;0.80;;
30185;SDS011;31152;49.190;8.122;2022-07-12T09:39:48;7.72;;;1.45;;
30185;SDS011;31152;49.190;8.122;2022-07-12T09:42:17;2.67;;;1.00;;
30185;SDS011;31152;49.190;8.122;2022-07-12T09:44:52;3.58;;;1.13;;
30185;SDS011;31152;49.190;8.122;2022-07-12T09:47:25;11.35;;;1.50;;
30185;SDS011;31152;49.190;8.122;2022-07-12T09:49:53;5.13;;;1.40;;
30185;SDS011;31152;49.190;8.122;2022-07-12T09:52:24;6.38;;;1.48;;
30185;SDS011;31152;49.190;8.122;2022-07-12T09:54:53;1.40;;;1.27;;
30185;SDS011;31152;49.190;8.122;2022-07-12T09:57:31;3.17;;;1.02;;
30185;SDS011;31152;49.190;8.122;2022-07-12T09:59:59;4.70;;;1.02;;
30185;SDS011;31152;49.190;8.122;2022-07-12T10:02:34;6.18;;;1.48;;
30185;SDS011;31152;49.190;8.122;2022-07-12T10:05:04;2.30;;;1.20;;
30185;SDS011;31152;49.190;8.122;2022-07-12T10:07:33;5.38;;;1.08;;
30185;SDS011;31152;49.190;8.122;2022-07-12T10:10:05;5.22;;;0.90;;
30185;SDS011;31152;49.190;8.122;2022-07-12T10:12:35;2.60;;;1.23;;
30185;SDS011;31152;49.190;8.122;2022-07-12T10:15:04;1.88;;;1.13;;
30185;SDS011;31152;49.190;8.122;2022-07-12T10:17:35;10.00;;;1.65;;
30185;SDS011;31152;49.190;8.122;2022-07-12T10:20:16;5.00;;;0.95;;
30185;SDS011;31152;49.190;8.122;2022-07-12T10:23:35;2.35;;;1.20;;
30185;SDS011;31152;49.190;8.122;2022-07-12T10:25:52;2.70;;;1.00;;
30185;SDS011;31152;49.190;8.122;2022-07-12T10:28:21;1.42;;;1.25;;
30185;SDS011;31152;49.190;8.122;2022-07-12T10:30:49;5.50;;;1.13;;
30185;SDS011;31152;49.190;8.122;2022-07-12T10:33:17;1.35;;;0.90;;
30185;SDS011;31152;49.190;8.122;2022-07-12T10:36:01;4.55;;;1.65;;
30185;SDS011;31152;49.190;8.122;2022-07-12T10:38:28;6.97;;;1.38;;
30185;SDS011;31152;49.190;8.122;2022-07-12T10:40:55;2.53;;;1.05;;
30185;SDS011;31152;49.190;8.122;2022-07-12T10:43:44;5.72;;;1.10;;
30185;SDS011;31152;49.190;8.122;2022-07-12T10:46:29;3.60;;;1.20;;
30185;SDS011;31152;49.190;8.122;2022-07-12T10:52:14;1.10;;;0.77;;
30185;SDS011;31152;49.190;8.122;2022-07-12T11:01:51;3.60;;;1.15;;
30185;SDS011;31152;49.190;8.122;2022-07-12T11:04:22;10.07;;;1.40;;
30185;SDS011;31152;49.190;8.122;2022-07-12T11:06:52;2.35;;;1.10;;
30185;SDS011;31152;49.190;8.122;2022-07-12T11:09:22;3.83;;;0.93;;
30185;SDS011;31152;49.190;8.122;2022-07-12T11:11:50;5.85;;;1.00;;
30185;SDS011;31152;49.190;8.122;2022-07-12T11:16:52;2.58;;;1.10;;
30185;SDS011;31152;49.190;8.122;2022-07-12T11:19:21;2.28;;;0.80;;
30185;SDS011;31152;49.190;8.122;2022-07-12T11:21:54;0.70;;;0.70;;
30185;SDS011;31152;49.190;8.122;2022-07-12T11:24:29;3.55;;;0.63;;
30185;SDS011;31152;49.190;8.122;2022-07-12T11:26:58;4.93;;;0.85;;
30185;SDS011;31152;49.190;8.122;2022-07-12T11:29:28;0.82;;;0.80;;
30185;SDS011;31152;49.190;8.122;2022-07-12T11:32:04;5.43;;;1.10;;
30185;SDS011;31152;49.190;8.122;2022-07-12T11:34:37;3.25;;;1.17;;
30185;SDS011;31152;49.190;8.122;2022-07-12T11:37:05;1.52;;;0.80;;
30185;SDS011;31152;49.190;8.122;2022-07-12T11:39:35;3.28;;;0.80;;
30185;SDS011;31152;49.190;8.122;2022-07-12T11:42:06;4.25;;;2.17;;
30185;SDS011;31152;49.190;8.122;2022-07-12T11:44:41;3.15;;;1.10;;
30185;SDS011;31152;49.190;8.122;2022-07-12T11:47:13;4.75;;;1.00;;
30185;SDS011;31152;49.190;8.122;2022-07-12T11:49:47;1.25;;;0.73;;
30185;SDS011;31152;49.190;8.122;2022-07-12T11:52:17;0.93;;;0.80;;
30185;SDS011;31152;49.190;8.122;2022-07-12T11:54:45;5.88;;;0.98;;
30185;SDS011;31152;49.190;8.122;2022-07-12T11:57:13;0.95;;;0.80;;
30185;SDS011;31152;49.190;8.122;2022-07-12T11:59:41;1.48;;;0.70;;
30185;SDS011;31152;49.190;8.122;2022-07-12T12:02:09;2.20;;;0.70;;
30185;SDS011;31152;49.190;8.122;2022-07-12T12:07:16;1.33;;;0.70;;
30185;SDS011;31152;49.190;8.122;2022-07-12T12:12:46;3.33;;;0.90;;
30185;SDS011;31152;49.190;8.122;2022-07-12T12:15:17;1.20;;;0.90;;
30185;SDS011;31152;49.190;8.122;2022-07-12T12:17:46;3.20;;;0.60;;
30185;SDS011;31152;49.190;8.122;2022-07-12T12:20:22;7.40;;;1.15;;
30185;SDS011;31152;49.190;8.122;2022-07-12T12:22:52;2.42;;;0.60;;
30185;SDS011;31152;49.190;8.122;2022-07-12T12:25:26;4.25;;;0.70;;
30185;SDS011;31152;49.190;8.122;2022-07-12T12:30:48;2.47;;;0.90;;
30185;SDS011;31152;49.190;8.122;2022-07-12T12:33:33;9.30;;;1.60;;
30185;SDS011;31152;49.190;8.122;2022-07-12T12:36:16;3.58;;;0.95;;
30185;SDS011;31152;49.190;8.122;2022-07-12T12:38:45;4.70;;;0.82;;
30185;SDS011;31152;49.190;8.122;2022-07-12T12:41:12;4.88;;;1.42;;
30185;SDS011;31152;49.190;8.122;2022-07-12T12:43:42;5.50;;;1.40;;
30185;SDS011;31152;49.190;8.122;2022-07-12T12:46:10;8.07;;;1.35;;
30185;SDS011;31152;49.190;8.122;2022-07-12T12:48:46;2.70;;;1.10;;
30185;SDS011;31152;49.190;8.122;2022-07-12T12:51:13;2.58;;;1.15;;
30185;SDS011;31152;49.190;8.122;2022-07-12T12:53:41;2.85;;;0.80;;
30185;SDS011;31152;49.190;8.122;2022-07-12T12:56:10;6.03;;;1.05;;
30185;SDS011;31152;49.190;8.122;2022-07-12T12:58:39;2.35;;;1.10;;
30185;SDS011;31152;49.190;8.122;2022-07-12T13:01:07;2.63;;;0.90;;
30185;SDS011;31152;49.190;8.122;2022-07-12T13:03:35;2.42;;;0.90;;
30185;SDS011;31152;49.190;8.122;2022-07-12T13:06:02;1.98;;;0.95;;
30185;SDS011;31152;49.190;8.122;2022-07-12T13:08:31;5.85;;;1.20;;
30185;SDS011;31152;49.190;8.122;2022-07-12T13:10:59;2.40;;;1.25;;
30185;SDS011;31152;49.190;8.122;2022-07-12T13:13:44;2.90;;;0.80;;
30185;SDS011;31152;49.190;8.122;2022-07-12T13:16:16;2.38;;;0.93;;
30185;SDS011;31152;49.190;8.122;2022-07-12T13:18:45;1.38;;;0.95;;
30185;SDS011;31152;49.190;8.122;2022-07-12T13:21:12;6.68;;;1.10;;
30185;SDS011;31152;49.190;8.122;2022-07-12T13:23:39;2.80;;;0.93;;
30185;SDS011;31152;49.190;8.122;2022-07-12T13:26:10;1.65;;;0.90;;
30185;SDS011;31152;49.190;8.122;2022-07-12T13:28:37;1.73;;;1.23;;
30185;SDS011;31152;49.190;8.122;2022-07-12T13:31:03;2.08;;;0.95;;
30185;SDS011;31152;49.190;8.122;2022-07-12T13:33:35;1.85;;;0.98;;
30185;SDS011;31152;49.190;8.122;2022-07-12T13:36:06;5.45;;;1.08;;
30185;SDS011;31152;49.190;8.122;2022-07-12T13:38:33;3.72;;;1.10;;
30185;SDS011;31152;49.190;8.122;2022-07-12T13:41:00;1.83;;;1.00;;
30185;SDS011;31152;49.190;8.122;2022-07-12T13:43:27;2.55;;;1.33;;
30185;SDS011;31152;49.190;8.122;2022-07-12T13:45:53;4.50;;;1.17;;
30185;SDS011;31152;49.190;8.122;2022-07-12T13:48:21;4.13;;;1.27;;
30185;SDS011;31152;49.190;8.122;2022-07-12T13:50:50;1.20;;;0.90;;
30185;SDS011;31152;49.190;8.122;2022-07-12T13:53:37;1.20;;;0.93;;
30185;SDS011;31152;49.190;8.122;2022-07-12T13:56:07;1.55;;;0.95;;
30185;SDS011;31152;49.190;8.122;2022-07-12T13:58:33;3.55;;;1.20;;
30185;SDS011;31152;49.190;8.122;2022-07-12T14:01:00;1.13;;;0.80;;
30185;SDS011;31152;49.190;8.122;2022-07-12T14:03:28;2.25;;;0.90;;
30185;SDS011;31152;49.190;8.122;2022-07-12T14:05:55;3.75;;;1.42;;
30185;SDS011;31152;49.190;8.122;2022-07-12T14:08:22;2.63;;;1.00;;
30185;SDS011;31152;49.190;8.122;2022-07-12T14:10:49;3.15;;;0.80;;
30185;SDS011;31152;49.190;8.122;2022-07-12T14:13:15;1.85;;;0.95;;
30185;SDS011;31152;49.190;8.122;2022-07-12T14:15:42;1.63;;;1.05;;
30185;SDS011;31152;49.190;8.122;2022-07-12T14:18:11;2.70;;;0.90;;
30185;SDS011;31152;49.190;8.122;2022-07-12T14:20:40;4.45;;;1.13;;
30185;SDS011;31152;49.190;8.122;2022-07-12T14:23:10;2.95;;;0.90;;
30185;SDS011;31152;49.190;8.122;2022-07-12T14:25:39;4.75;;;1.13;;
30185;SDS011;31152;49.190;8.122;2022-07-12T14:28:08;3.38;;;1.02;;
30185;SDS011;31152;49.190;8.122;2022-07-12T14:30:38;2.97;;;0.90;;
30185;SDS011;31152;49.190;8.122;2022-07-12T14:33:05;3.38;;;1.10;;
30185;SDS011;31152;49.190;8.122;2022-07-12T14:35:32;4.28;;;0.90;;
30185;SDS011;31152;49.190;8.122;2022-07-12T14:37:59;0.98;;;0.80;;
30185;SDS011;31152;49.190;8.122;2022-07-12T14:40:26;0.80;;;0.80;;
30185;SDS011;31152;49.190;8.122;2022-07-12T14:42:55;3.22;;;1.05;;
30185;SDS011;31152;49.190;8.122;2022-07-12T14:45:24;1.33;;;0.80;;
30185;SDS011;31152;49.190;8.122;2022-07-12T14:47:51;4.90;;;1.98;;
30185;SDS011;31152;49.190;8.122;2022-07-12T14:50:21;3.38;;;1.00;;
30185;SDS011;31152;49.190;8.122;2022-07-12T14:52:48;1.83;;;0.80;;
30185;SDS011;31152;49.190;8.122;2022-07-12T14:55:16;4.93;;;1.15;;
30185;SDS011;31152;49.190;8.122;2022-07-12T14:57:43;1.55;;;0.80;;
30185;SDS011;31152;49.190;8.122;2022-07-12T15:00:13;1.27;;;0.77;;
30185;SDS011;31152;49.190;8.122;2022-07-12T15:02:40;3.88;;;0.80;;
30185;SDS011;31152;49.190;8.122;2022-07-12T15:05:14;7.55;;;1.40;;
30185;SDS011;31152;49.190;8.122;2022-07-12T15:07:42;2.97;;;0.90;;
30185;SDS011;31152;49.190;8.122;2022-07-12T15:10:16;3.22;;;0.90;;
30185;SDS011;31152;49.190;8.122;2022-07-12T15:12:44;3.63;;;0.90;;
30185;SDS011;31152;49.190;8.122;2022-07-12T15:15:11;4.82;;;1.20;;
30185;SDS011;31152;49.190;8.122;2022-07-12T15:17:38;2.65;;;0.70;;
30185;SDS011;31152;49.190;8.122;2022-07-12T15:20:05;2.90;;;0.95;;
30185;SDS011;31152;49.190;8.122;2022-07-12T15:22:33;1.05;;;0.70;;
30185;SDS011;31152;49.190;8.122;2022-07-12T15:25:02;3.85;;;0.80;;
30185;SDS011;31152;49.190;8.122;2022-07-12T15:27:29;2.97;;;1.00;;
30185;SDS011;31152;49.190;8.122;2022-07-12T15:29:56;3.03;;;0.80;;
30185;SDS011;31152;49.190;8.122;2022-07-12T15:32:24;3.90;;;0.85;;